Time;durP1;ratioP1;P1;durP2;ratioP2;P2;SDS_P1;SDS_P2;PMS_P1;PMS_P2;Temp;Humidity;BMP_temperature;BMP_pressure;BME280_temperature;BME280_humidity;BME280_pressure;Samples;Min_cycle;Max_cycle;Signal;HPM_P1;HPM_P2
2023/10/20 00:02:37;;;;;;;22.25;13.68;;;;;;;;;;10376178;28;20018;-69
2023/10/20 00:07:37;;;;;;;18.52;11.68;;;;;;;;;;10340288;28;20200;-70
2023/10/20 00:12:39;;;;;;;16.97;11.33;;;;;;;;;;10371900;28;20061;-70
2023/10/20 00:17:39;;;;;;;19.25;11.55;;;;;;;;;;10375540;28;20081;-70
2023/10/20 00:22:40;;;;;;;27.50;13.57;;;;;;;;;;10375836;28;20026;-70
2023/10/20 00:27:43;;;;;;;20.27;12.32;;;;;;;;;;10375259;28;20427;-69
2023/10/20 00:32:45;;;;;;;18.70;11.50;;;;;;;;;;10373433;28;20314;-70
2023/10/20 00:37:45;;;;;;;18.85;12.25;;;;;;;;;;10374971;28;20240;-70
2023/10/20 00:42:45;;;;;;;18.15;12.07;;;;;;;;;;10374599;28;20029;-70
2023/10/20 00:47:46;;;;;;;22.52;13.13;;;;;;;;;;10374456;28;20082;-70
2023/10/20 00:52:48;;;;;;;21.57;12.10;;;;;;;;;;10374365;28;20056;-70
2023/10/20 00:57:49;;;;;;;22.92;12.50;;;;;;;;;;10376715;28;20595;-70
2023/10/20 01:02:51;;;;;;;20.98;12.75;;;;;;;;;;10374965;28;20033;-70
2023/10/20 01:07:52;;;;;;;21.35;12.27;;;;;;;;;;10374024;28;20049;-70
2023/10/20 01:12:52;;;;;;;19.92;10.55;;;;;;;;;;10373960;28;20295;-69
2023/10/20 01:17:53;;;;;;;18.08;10.27;;;;;;;;;;10373900;28;20021;-70
2023/10/20 01:22:53;;;;;;;19.70;11.77;;;;;;;;;;10374373;28;20064;-70
2023/10/20 01:27:54;;;;;;;20.17;10.50;;;;;;;;;;10382083;28;20026;-70
2023/10/20 01:32:54;;;;;;;19.48;9.35;;;;;;;;;;10382317;28;20331;-70
2023/10/20 01:37:54;;;;;;;18.87;10.30;;;;;;;;;;10381653;28;20018;-70
2023/10/20 01:42:55;;;;;;;13.40;9.13;;;;;;;;;;10381591;28;20268;-70
2023/10/20 01:47:55;;;;;;;15.10;9.50;;;;;;;;;;10381393;28;20336;-70
2023/10/20 01:52:56;;;;;;;14.30;9.60;;;;;;;;;;10380505;28;20065;-70
2023/10/20 01:57:56;;;;;;;14.55;9.80;;;;;;;;;;10380749;28;20026;-70
2023/10/20 02:02:56;;;;;;;18.80;10.00;;;;;;;;;;10380702;28;20030;-69
2023/10/20 02:07:57;;;;;;;15.80;9.27;;;;;;;;;;10380217;28;20018;-69
2023/10/20 02:12:57;;;;;;;17.23;10.40;;;;;;;;;;10380171;28;20033;-71
2023/10/20 02:17:57;;;;;;;15.85;9.73;;;;;;;;;;10379642;28;20114;-70
2023/10/20 02:22:58;;;;;;;20.73;10.70;;;;;;;;;;10379870;28;20014;-71
2023/10/20 02:27:58;;;;;;;20.75;10.95;;;;;;;;;;10379825;28;20021;-69
2023/10/20 02:32:58;;;;;;;21.40;11.23;;;;;;;;;;10379594;28;20132;-69
2023/10/20 02:37:58;;;;;;;15.70;10.20;;;;;;;;;;10378565;28;20041;-69
2023/10/20 02:42:59;;;;;;;16.15;10.38;;;;;;;;;;10379826;28;20017;-69
2023/10/20 02:47:59;;;;;;;15.18;11.05;;;;;;;;;;10378974;28;20335;-70
2023/10/20 02:52:59;;;;;;;19.30;10.77;;;;;;;;;;10378223;28;20037;-70
2023/10/20 02:58:00;;;;;;;20.73;11.43;;;;;;;;;;10378430;28;20211;-69
2023/10/20 03:03:00;;;;;;;20.80;11.02;;;;;;;;;;10378552;28;20013;-70
2023/10/20 03:08:01;;;;;;;18.13;11.57;;;;;;;;;;10376613;28;20029;-70
2023/10/20 03:13:02;;;;;;;22.83;11.13;;;;;;;;;;10377909;28;20372;-69
2023/10/20 03:18:02;;;;;;;18.40;10.63;;;;;;;;;;10377983;28;20037;-70
2023/10/20 03:23:03;;;;;;;18.00;10.75;;;;;;;;;;10377266;28;20025;-69
2023/10/20 03:28:03;;;;;;;17.85;10.27;;;;;;;;;;10376300;28;20067;-70
2023/10/20 03:33:05;;;;;;;16.90;9.90;;;;;;;;;;10377325;28;20022;-71
2023/10/20 03:38:05;;;;;;;22.25;10.98;;;;;;;;;;10375948;28;20022;-71
2023/10/20 03:43:08;;;;;;;19.17;10.23;;;;;;;;;;10376313;28;20299;-71
2023/10/20 03:48:09;;;;;;;17.90;11.35;;;;;;;;;;10375375;28;20085;-71
2023/10/20 03:53:15;;;;;;;18.58;11.63;;;;;;;;;;10375915;28;20054;-71
2023/10/20 03:58:16;;;;;;;18.02;11.75;;;;;;;;;;10376508;28;20040;-70
2023/10/20 04:03:16;;;;;;;20.92;12.35;;;;;;;;;;10375876;28;20284;-71
2023/10/20 04:08:17;;;;;;;21.95;12.30;;;;;;;;;;10374493;28;20030;-70
2023/10/20 04:13:17;;;;;;;23.98;12.55;;;;;;;;;;10374559;28;20018;-69
2023/10/20 04:18:19;;;;;;;25.25;11.98;;;;;;;;;;10375525;28;20025;-70
2023/10/20 04:23:20;;;;;;;25.92;12.20;;;;;;;;;;10374690;28;20401;-70
2023/10/20 04:28:37;;;;;;;20.27;11.40;;;;;;;;;;10357229;28;20033;-71
2023/10/20 05:10:25;;;;;;;30.40;16.48;;;;;;;;;;10381726;28;20353;-70
2023/10/20 05:15:26;;;;;;;25.08;16.05;;;;;;;;;;10381231;28;20045;-69
2023/10/20 05:20:26;;;;;;;32.80;17.00;;;;;;;;;;10381388;28;20053;-71
2023/10/20 05:25:26;;;;;;;31.95;15.80;;;;;;;;;;10381626;28;20204;-71
2023/10/20 05:30:27;;;;;;;26.13;17.70;;;;;;;;;;10381363;28;20040;-71
2023/10/20 05:35:29;;;;;;;37.70;17.57;;;;;;;;;;10380924;28;20196;-69
2023/10/20 05:40:29;;;;;;;38.47;20.85;;;;;;;;;;10381139;28;20264;-70
2023/10/20 05:45:32;;;;;;;47.38;21.02;;;;;;;;;;10381571;28;20033;-69
2023/10/20 05:50:34;;;;;;;38.33;17.73;;;;;;;;;;10380516;28;20045;-69
2023/10/20 05:55:34;;;;;;;29.45;17.52;;;;;;;;;;10380570;28;20308;-71
2023/10/20 06:00:35;;;;;;;32.10;15.85;;;;;;;;;;10379791;28;20021;-70
2023/10/20 06:05:35;;;;;;;35.80;18.77;;;;;;;;;;10379890;28;20017;-70
2023/10/20 06:10:36;;;;;;;33.85;17.50;;;;;;;;;;10379835;28;20308;-69
2023/10/20 06:15:36;;;;;;;28.63;16.38;;;;;;;;;;10380724;28;20057;-69
2023/10/20 06:20:39;;;;;;;25.67;15.43;;;;;;;;;;10379443;28;20060;-70
2023/10/20 06:25:42;;;;;;;28.92;13.10;;;;;;;;;;10379248;28;20021;-69
2023/10/20 06:30:43;;;;;;;23.33;12.95;;;;;;;;;;10378453;28;20024;-71
2023/10/20 06:35:53;;;;;;;20.05;13.27;;;;;;;;;;10379482;28;20089;-69
2023/10/20 06:40:53;;;;;;;21.38;11.88;;;;;;;;;;10379025;28;20018;-69
2023/10/20 06:45:54;;;;;;;19.45;10.90;;;;;;;;;;10378625;28;20085;-69
2023/10/20 06:50:55;;;;;;;19.15;11.20;;;;;;;;;;10377939;28;20068;-69
2023/10/20 06:55:56;;;;;;;23.38;11.23;;;;;;;;;;10377840;28;20040;-70
2023/10/20 07:00:56;;;;;;;23.67;10.90;;;;;;;;;;10378266;28;20018;-71
2023/10/20 07:05:57;;;;;;;25.93;10.17;;;;;;;;;;10376891;28;20024;-69
2023/10/20 07:11:00;;;;;;;15.75;9.35;;;;;;;;;;10377952;28;20602;-69
2023/10/20 07:16:00;;;;;;;18.90;9.65;;;;;;;;;;10377475;28;20319;-68
2023/10/20 07:21:02;;;;;;;20.20;9.57;;;;;;;;;;10376595;28;20052;-70
2023/10/20 07:26:03;;;;;;;16.90;11.10;;;;;;;;;;10377007;28;20020;-69
2023/10/20 07:31:16;;;;;;;21.75;10.07;;;;;;;;;;10377082;28;20021;-70
2023/10/20 07:36:16;;;;;;;15.43;8.63;;;;;;;;;;10375770;28;20017;-69
2023/10/20 07:41:17;;;;;;;14.68;9.40;;;;;;;;;;10376336;28;20026;-69
2023/10/20 07:46:17;;;;;;;17.48;9.38;;;;;;;;;;10376421;28;20087;-70
2023/10/20 07:51:18;;;;;;;14.40;8.30;;;;;;;;;;10376237;28;20041;-70
2023/10/20 07:56:18;;;;;;;14.80;7.15;;;;;;;;;;10376211;28;20025;-70
2023/10/20 08:01:19;;;;;;;24.20;9.35;;;;;;;;;;10376310;28;20040;-70
2023/10/20 08:06:19;;;;;;;20.15;7.97;;;;;;;;;;10375430;28;20358;-69
2023/10/20 08:11:20;;;;;;;23.35;8.65;;;;;;;;;;10375297;28;20022;-69
2023/10/20 08:16:21;;;;;;;12.27;7.90;;;;;;;;;;10375853;28;20033;-70
2023/10/20 08:21:26;;;;;;;12.05;5.00;;;;;;;;;;10375068;28;20241;-71
2023/10/20 08:26:26;;;;;;;10.07;6.10;;;;;;;;;;10375446;28;20018;-70
2023/10/20 08:31:26;;;;;;;15.85;7.22;;;;;;;;;;10373629;28;20025;-71
2023/10/20 08:36:27;;;;;;;17.13;6.80;;;;;;;;;;10373596;28;20022;-70
2023/10/20 08:41:27;;;;;;;11.90;6.40;;;;;;;;;;10375169;28;20264;-70
2023/10/20 08:46:27;;;;;;;11.00;7.07;;;;;;;;;;10373800;28;20025;-70
2023/10/20 08:51:28;;;;;;;18.13;6.35;;;;;;;;;;10374140;28;20057;-69
2023/10/20 08:56:28;;;;;;;12.77;5.90;;;;;;;;;;10375095;28;20057;-70
2023/10/20 09:01:28;;;;;;;14.32;6.35;;;;;;;;;;10374825;28;20076;-70
2023/10/20 09:06:30;;;;;;;12.75;6.00;;;;;;;;;;10374398;28;20045;-71
2023/10/20 09:11:30;;;;;;;12.70;6.47;;;;;;;;;;10373904;28;20279;-71
2023/10/20 09:16:33;;;;;;;13.52;5.38;;;;;;;;;;10374205;28;20396;-70
2023/10/20 09:21:33;;;;;;;15.55;5.72;;;;;;;;;;10374831;28;20030;-70
2023/10/20 09:26:37;;;;;;;9.10;4.95;;;;;;;;;;10374273;28;20406;-70
2023/10/20 09:31:37;;;;;;;10.27;4.88;;;;;;;;;;10374028;28;20264;-70
2023/10/20 09:36:39;;;;;;;14.13;4.80;;;;;;;;;;10373882;28;20026;-69
2023/10/20 09:41:43;;;;;;;14.13;4.63;;;;;;;;;;10373884;28;20080;-70
2023/10/20 09:46:43;;;;;;;12.52;4.22;;;;;;;;;;10377825;28;20042;-70
2023/10/20 09:51:44;;;;;;;8.77;3.87;;;;;;;;;;10380631;28;20054;-69
2023/10/20 09:56:45;;;;;;;15.43;3.47;;;;;;;;;;10379894;28;20026;-71
2023/10/20 10:01:46;;;;;;;12.70;4.72;;;;;;;;;;10379323;28;20036;-71
2023/10/20 10:06:48;;;;;;;8.18;2.67;;;;;;;;;;10379835;28;20271;-70
2023/10/20 10:11:49;;;;;;;9.55;3.05;;;;;;;;;;10378468;28;20018;-71
2023/10/20 10:16:56;;;;;;;11.98;3.72;;;;;;;;;;10379600;28;20033;-70
2023/10/20 10:22:00;;;;;;;7.45;2.80;;;;;;;;;;10379891;28;20029;-70
2023/10/20 10:27:04;;;;;;;10.52;2.55;;;;;;;;;;10379463;28;20093;-70
2023/10/20 10:32:14;;;;;;;12.15;2.78;;;;;;;;;;10379268;28;20044;-70
2023/10/20 10:37:16;;;;;;;5.93;2.13;;;;;;;;;;10379806;28;20099;-70
2023/10/20 10:42:16;;;;;;;13.27;3.70;;;;;;;;;;10377681;28;20364;-71
2023/10/20 10:47:22;;;;;;;22.70;3.30;;;;;;;;;;10378257;28;20030;-71
2023/10/20 10:52:23;;;;;;;13.63;2.83;;;;;;;;;;10378481;28;20337;-70
2023/10/20 10:57:23;;;;;;;8.90;3.28;;;;;;;;;;10377885;28;20109;-70
2023/10/20 11:02:23;;;;;;;7.68;2.13;;;;;;;;;;10378139;28;20456;-70
2023/10/20 11:07:24;;;;;;;13.37;2.43;;;;;;;;;;10377941;28;20048;-70
2023/10/20 11:12:24;;;;;;;15.90;2.60;;;;;;;;;;10377567;28;20299;-70
2023/10/20 11:17:24;;;;;;;8.13;2.70;;;;;;;;;;10377166;28;20089;-70
2023/10/20 11:22:24;;;;;;;9.88;2.03;;;;;;;;;;10377069;28;20040;-70
2023/10/20 11:27:26;;;;;;;13.80;3.17;;;;;;;;;;10377074;28;20057;-69
2023/10/20 11:32:26;;;;;;;12.80;2.20;;;;;;;;;;10380955;28;20025;-69
2023/10/20 11:37:27;;;;;;;10.93;2.47;;;;;;;;;;10376508;28;20096;-71
2023/10/20 11:42:27;;;;;;;15.20;3.20;;;;;;;;;;10374916;28;20040;-70
2023/10/20 11:47:27;;;;;;;12.10;2.70;;;;;;;;;;10363955;28;20286;-69
2023/10/20 11:52:28;;;;;;;10.30;3.10;;;;;;;;;;10374724;28;20092;-69
2023/10/20 11:57:28;;;;;;;14.63;2.97;;;;;;;;;;10375751;28;20045;-70
2023/10/20 12:02:29;;;;;;;12.07;3.40;;;;;;;;;;10375925;28;20084;-70
2023/10/20 12:07:29;;;;;;;10.73;3.78;;;;;;;;;;10375162;28;20088;-71
2023/10/20 12:12:31;;;;;;;15.55;3.20;;;;;;;;;;10375291;28;20013;-69
2023/10/20 12:17:31;;;;;;;16.95;4.75;;;;;;;;;;10374869;28;20105;-69
2023/10/20 12:22:31;;;;;;;9.30;3.08;;;;;;;;;;10375342;28;20085;-70
2023/10/20 12:27:31;;;;;;;12.40;3.47;;;;;;;;;;10375183;28;20018;-71
2023/10/20 12:32:32;;;;;;;20.17;3.63;;;;;;;;;;10375160;28;20036;-69
2023/10/20 12:37:32;;;;;;;13.20;2.55;;;;;;;;;;10373775;28;20071;-70
2023/10/20 12:42:32;;;;;;;11.55;3.15;;;;;;;;;;10375043;28;20193;-69
2023/10/20 12:47:32;;;;;;;16.10;3.22;;;;;;;;;;10375214;28;20014;-71
2023/10/20 12:52:33;;;;;;;13.95;2.88;;;;;;;;;;10374701;28;20342;-69
2023/10/20 12:57:33;;;;;;;20.50;2.95;;;;;;;;;;10373696;28;20017;-69
2023/10/20 13:02:33;;;;;;;15.02;3.00;;;;;;;;;;10374185;28;20018;-70
2023/10/20 13:07:34;;;;;;;15.43;2.78;;;;;;;;;;10373969;28;20018;-70
2023/10/20 13:12:35;;;;;;;11.25;2.60;;;;;;;;;;10373893;28;20018;-71
2023/10/20 13:17:36;;;;;;;19.52;3.47;;;;;;;;;;10374482;28;20212;-70
2023/10/20 13:22:36;;;;;;;19.40;2.30;;;;;;;;;;10382331;28;20053;-70
2023/10/20 13:27:36;;;;;;;15.97;2.70;;;;;;;;;;10381675;28;20033;-70
2023/10/20 13:32:37;;;;;;;13.57;2.83;;;;;;;;;;10381105;28;20241;-70
2023/10/20 13:37:39;;;;;;;12.73;3.40;;;;;;;;;;10380374;28;20029;-71
2023/10/20 13:42:40;;;;;;;20.85;3.25;;;;;;;;;;10356500;28;20023;-70
2023/10/20 13:47:40;;;;;;;14.38;3.60;;;;;;;;;;10314093;28;20022;-70
2023/10/20 13:52:40;;;;;;;20.38;3.10;;;;;;;;;;10317906;28;20046;-68
2023/10/20 13:57:41;;;;;;;20.25;3.42;;;;;;;;;;10318108;28;20343;-70
2023/10/20 14:02:41;;;;;;;20.52;3.25;;;;;;;;;;10311832;28;20081;-70
2023/10/20 14:07:41;;;;;;;21.80;2.83;;;;;;;;;;10313389;28;20023;-69
2023/10/20 14:12:41;;;;;;;11.23;2.70;;;;;;;;;;10308291;28;20103;-71
2023/10/20 14:17:42;;;;;;;12.60;2.70;;;;;;;;;;10311717;28;20030;-71
2023/10/20 14:22:42;;;;;;;8.37;2.30;;;;;;;;;;10313996;28;20050;-69
2023/10/20 14:27:42;;;;;;;14.27;2.22;;;;;;;;;;10320222;28;20239;-70
2023/10/20 14:32:43;;;;;;;15.38;2.22;;;;;;;;;;10318557;28;20027;-70
2023/10/20 14:37:43;;;;;;;13.63;2.22;;;;;;;;;;10311170;28;20031;-70
2023/10/20 14:42:43;;;;;;;8.20;1.85;;;;;;;;;;10314381;28;20217;-71
2023/10/20 14:47:43;;;;;;;12.67;2.40;;;;;;;;;;10312844;28;20309;-72
2023/10/20 14:52:44;;;;;;;13.88;2.50;;;;;;;;;;10352795;28;20042;-71
2023/10/20 14:57:44;;;;;;;12.47;1.90;;;;;;;;;;10377735;28;20048;-71
2023/10/20 15:02:44;;;;;;;14.98;2.60;;;;;;;;;;10376674;28;20014;-69
2023/10/20 15:07:44;;;;;;;11.68;3.67;;;;;;;;;;10377766;28;20028;-70
2023/10/20 15:12:45;;;;;;;14.27;3.08;;;;;;;;;;10377489;28;20014;-71
2023/10/20 15:17:45;;;;;;;17.65;2.63;;;;;;;;;;10377430;28;20049;-70
2023/10/20 15:22:46;;;;;;;21.88;2.13;;;;;;;;;;10376992;28;20085;-70
2023/10/20 15:27:46;;;;;;;18.20;3.00;;;;;;;;;;10377116;28;20024;-70
2023/10/20 15:32:46;;;;;;;7.88;1.95;;;;;;;;;;10377418;28;20045;-72
2023/10/20 15:37:47;;;;;;;11.50;2.75;;;;;;;;;;10376350;28;20193;-70
2023/10/20 15:42:47;;;;;;;14.20;3.13;;;;;;;;;;10375682;28;20067;-70
2023/10/20 15:47:48;;;;;;;12.70;3.45;;;;;;;;;;10376843;28;20013;-69
2023/10/20 15:52:49;;;;;;;11.50;3.22;;;;;;;;;;10375370;28;20045;-70
2023/10/20 15:57:49;;;;;;;15.38;4.60;;;;;;;;;;10375669;28;20315;-69
2023/10/20 16:02:49;;;;;;;11.45;3.15;;;;;;;;;;10374864;28;20022;-69
2023/10/20 16:07:50;;;;;;;16.10;4.50;;;;;;;;;;10374638;28;20028;-69
2023/10/20 16:12:51;;;;;;;16.52;3.80;;;;;;;;;;10357673;28;20010;-70
2023/10/20 16:17:54;;;;;;;12.68;3.90;;;;;;;;;;10333373;28;20027;-70
2023/10/20 16:22:54;;;;;;;16.70;3.88;;;;;;;;;;10357246;28;20171;-69
2023/10/20 16:27:54;;;;;;;14.95;3.85;;;;;;;;;;10322082;28;20201;-70
2023/10/20 16:32:54;;;;;;;14.68;4.15;;;;;;;;;;10329965;28;20029;-69
2023/10/20 16:37:55;;;;;;;14.70;4.35;;;;;;;;;;10357203;28;20129;-69
2023/10/20 16:42:55;;;;;;;18.63;5.73;;;;;;;;;;10371095;28;20284;-71
2023/10/20 16:47:56;;;;;;;16.90;4.63;;;;;;;;;;10372855;28;20026;-71
2023/10/20 16:52:57;;;;;;;21.92;6.75;;;;;;;;;;10376025;28;20139;-71
2023/10/20 16:57:57;;;;;;;31.50;6.07;;;;;;;;;;10386886;28;20025;-71
2023/10/20 17:02:58;;;;;;;23.65;6.13;;;;;;;;;;10388277;28;20036;-72
2023/10/20 17:07:58;;;;;;;18.75;4.85;;;;;;;;;;10362552;28;20320;-68
2023/10/20 17:12:59;;;;;;;15.73;5.13;;;;;;;;;;10377091;28;20075;-69
2023/10/20 17:17:59;;;;;;;27.42;6.10;;;;;;;;;;10387753;28;20021;-69
2023/10/20 17:22:59;;;;;;;25.13;5.95;;;;;;;;;;10386187;28;20248;-69
2023/10/20 17:28:00;;;;;;;18.20;5.70;;;;;;;;;;10374640;28;20041;-70
2023/10/20 17:33:00;;;;;;;18.33;4.13;;;;;;;;;;10320834;28;20089;-69
2023/10/20 17:38:04;;;;;;;12.73;2.38;;;;;;;;;;10325501;28;20069;-71
2023/10/20 17:43:04;;;;;;;15.13;3.85;;;;;;;;;;10321423;28;20038;-70
2023/10/20 17:48:07;;;;;;;19.97;4.27;;;;;;;;;;10312853;28;20093;-72
2023/10/20 17:53:09;;;;;;;11.48;3.75;;;;;;;;;;10334838;28;20282;-71
2023/10/20 17:58:09;;;;;;;14.85;4.95;;;;;;;;;;10314185;28;20029;-72
2023/10/20 18:03:11;;;;;;;13.13;2.83;;;;;;;;;;10320779;28;20194;-73
2023/10/20 18:08:12;;;;;;;19.88;4.50;;;;;;;;;;10309864;28;20030;-71
2023/10/20 18:13:12;;;;;;;26.27;4.47;;;;;;;;;;10312555;28;20082;-73
2023/10/20 18:18:13;;;;;;;16.95;3.60;;;;;;;;;;10321721;28;20277;-71
2023/10/20 18:23:13;;;;;;;11.25;3.53;;;;;;;;;;10303040;28;20027;-72
2023/10/20 18:28:13;;;;;;;22.02;4.25;;;;;;;;;;10312345;28;20085;-71
2023/10/20 18:33:16;;;;;;;19.88;6.10;;;;;;;;;;10319484;28;20034;-85
2023/10/20 18:38:17;;;;;;;23.42;5.13;;;;;;;;;;10317629;28;20052;-75
2023/10/20 18:43:18;;;;;;;30.60;9.68;;;;;;;;;;10319272;28;20276;-71
2023/10/20 18:48:19;;;;;;;20.17;5.53;;;;;;;;;;10315249;28;20438;-76
2023/10/20 18:53:20;;;;;;;20.05;4.50;;;;;;;;;;10315803;28;20117;-75
2023/10/20 18:58:20;;;;;;;22.15;5.72;;;;;;;;;;10314845;28;20044;-75
2023/10/20 19:03:20;;;;;;;18.63;4.85;;;;;;;;;;10313629;28;20064;-73
2023/10/20 19:08:23;;;;;;;10.63;2.80;;;;;;;;;;10308685;28;20399;-75
2023/10/20 19:13:24;;;;;;;9.23;3.03;;;;;;;;;;10323323;28;20061;-73
2023/10/20 19:18:24;;;;;;;21.13;3.45;;;;;;;;;;10327191;28;20073;-72
2023/10/20 19:23:24;;;;;;;11.02;3.60;;;;;;;;;;10326891;28;20252;-76
2023/10/20 19:28:24;;;;;;;20.77;4.87;;;;;;;;;;10321712;28;20653;-75
2023/10/20 19:33:25;;;;;;;10.00;2.83;;;;;;;;;;10326428;28;20026;-73
2023/10/20 19:38:25;;;;;;;13.57;4.07;;;;;;;;;;10323384;28;20339;-75
2023/10/20 19:43:28;;;;;;;14.52;2.95;;;;;;;;;;10320458;28;20116;-74
2023/10/20 19:48:28;;;;;;;17.90;3.42;;;;;;;;;;10322013;28;20332;-79
2023/10/20 19:53:28;;;;;;;9.07;3.23;;;;;;;;;;10312165;28;20054;-72
2023/10/20 19:58:29;;;;;;;11.68;2.60;;;;;;;;;;10321602;28;20328;-78
2023/10/20 20:03:29;;;;;;;21.13;3.70;;;;;;;;;;10323328;28;20081;-78
2023/10/20 20:08:32;;;;;;;16.98;3.78;;;;;;;;;;10323754;28;20316;-75
2023/10/20 20:13:32;;;;;;;16.30;3.75;;;;;;;;;;10323743;28;20018;-77
2023/10/20 20:18:32;;;;;;;19.00;3.50;;;;;;;;;;10327100;28;20034;-78
2023/10/20 20:23:33;;;;;;;13.93;3.75;;;;;;;;;;10327090;28;20133;-78
2023/10/20 20:28:33;;;;;;;15.05;4.80;;;;;;;;;;10325960;28;20053;-78
2023/10/20 20:33:33;;;;;;;24.60;4.80;;;;;;;;;;10321050;28;20026;-77
2023/10/20 20:38:34;;;;;;;11.17;3.87;;;;;;;;;;10325246;28;20347;-84
2023/10/20 20:43:34;;;;;;;17.92;3.97;;;;;;;;;;10324237;28;20305;-71
2023/10/20 20:48:34;;;;;;;15.32;3.05;;;;;;;;;;10322788;28;20244;-71
2023/10/20 20:53:34;;;;;;;18.00;3.45;;;;;;;;;;10322384;28;20039;-77
2023/10/20 20:58:35;;;;;;;12.17;3.50;;;;;;;;;;10317911;28;20041;-78
2023/10/20 21:03:35;;;;;;;13.02;2.92;;;;;;;;;;10325044;28;20331;-75
2023/10/20 21:08:35;;;;;;;14.80;4.33;;;;;;;;;;10321998;28;20076;-73
2023/10/20 21:13:36;;;;;;;10.13;4.40;;;;;;;;;;10321813;28;20262;-75
2023/10/20 21:18:37;;;;;;;16.48;4.72;;;;;;;;;;10319591;28;20027;-74
2023/10/20 21:23:37;;;;;;;17.90;4.47;;;;;;;;;;10321065;28;20312;-75
2023/10/20 21:28:38;;;;;;;20.73;5.22;;;;;;;;;;10321502;28;20431;-74
2023/10/20 21:33:38;;;;;;;26.48;5.63;;;;;;;;;;10319623;28;20045;-71
2023/10/20 21:38:39;;;;;;;18.27;3.80;;;;;;;;;;10326166;28;20026;-71
2023/10/20 21:43:39;;;;;;;12.52;3.75;;;;;;;;;;10325541;28;20609;-74
2023/10/20 21:48:39;;;;;;;14.48;4.80;;;;;;;;;;10326398;28;20243;-76
2023/10/20 21:53:41;;;;;;;12.82;4.93;;;;;;;;;;10329990;28;20312;-76
2023/10/20 21:58:42;;;;;;;11.90;3.57;;;;;;;;;;10331100;28;20041;-77
2023/10/20 22:03:42;;;;;;;14.10;3.00;;;;;;;;;;10320460;28;20339;-75
2023/10/20 22:08:42;;;;;;;19.02;3.72;;;;;;;;;;10329013;28;20018;-75
2023/10/20 22:13:42;;;;;;;14.95;4.40;;;;;;;;;;10328565;28;20097;-76
2023/10/20 22:18:48;;;;;;;21.65;4.10;;;;;;;;;;10326271;28;20026;-76
2023/10/20 22:23:48;;;;;;;15.02;3.47;;;;;;;;;;10330667;28;20041;-76
2023/10/20 22:28:48;;;;;;;12.80;3.80;;;;;;;;;;10326378;28;20419;-78
2023/10/20 22:33:49;;;;;;;22.43;4.27;;;;;;;;;;10327770;28;20057;-78
2023/10/20 22:38:49;;;;;;;14.55;4.47;;;;;;;;;;10328719;28;20034;-78
2023/10/20 22:43:52;;;;;;;12.85;3.00;;;;;;;;;;10329472;28;20304;-78
2023/10/20 22:48:52;;;;;;;13.77;3.58;;;;;;;;;;10328058;28;20049;-78
2023/10/20 22:53:53;;;;;;;8.15;3.10;;;;;;;;;;10328043;28;20049;-77
2023/10/20 22:58:53;;;;;;;12.73;4.00;;;;;;;;;;10325594;28;20062;-73
2023/10/20 23:03:53;;;;;;;8.27;3.00;;;;;;;;;;10324694;28;20304;-73
2023/10/20 23:08:53;;;;;;;15.57;3.63;;;;;;;;;;10326509;28;20058;-74
2023/10/20 23:13:54;;;;;;;20.80;4.53;;;;;;;;;;10327841;28;20030;-73
2023/10/20 23:18:56;;;;;;;11.73;3.45;;;;;;;;;;10328713;28;20105;-73
2023/10/20 23:23:56;;;;;;;17.45;4.72;;;;;;;;;;10333784;28;20022;-73
2023/10/20 23:28:57;;;;;;;11.55;3.78;;;;;;;;;;10334420;28;20295;-73
2023/10/20 23:33:57;;;;;;;14.90;4.70;;;;;;;;;;10333234;28;20025;-71
2023/10/20 23:38:57;;;;;;;8.23;3.67;;;;;;;;;;10333505;28;20018;-71
2023/10/20 23:43:58;;;;;;;10.27;4.67;;;;;;;;;;10320197;28;20320;-70
2023/10/20 23:48:58;;;;;;;15.93;5.65;;;;;;;;;;10333120;28;20026;-71
2023/10/20 23:53:59;;;;;;;16.08;4.53;;;;;;;;;;10333980;28;20407;-72
2023/10/20 23:58:59;;;;;;;13.60;4.00;;;;;;;;;;10332090;28;20292;-70
